sensor_id;sensor_type;location;lat;lon;timestamp;P1;durP1;ratioP1;P2;durP2;ratioP2
53971;SDS011;40530;53.062;6.078;2023-05-07T00:00:09;16.23;;;10.15;;
53971;SDS011;40530;53.062;6.078;2023-05-07T00:02:36;17.98;;;11.10;;
53971;SDS011;40530;53.062;6.078;2023-05-07T00:05:04;15.52;;;11.25;;
53971;SDS011;40530;53.062;6.078;2023-05-07T00:07:30;15.57;;;11.93;;
53971;SDS011;40530;53.062;6.078;2023-05-07T00:09:56;14.90;;;11.18;;
53971;SDS011;40530;53.062;6.078;2023-05-07T00:12:22;14.15;;;11.57;;
53971;SDS011;40530;53.062;6.078;2023-05-07T00:14:48;14.52;;;11.05;;
53971;SDS011;40530;53.062;6.078;2023-05-07T00:17:14;16.85;;;10.45;;
53971;SDS011;40530;53.062;6.078;2023-05-07T00:19:40;15.43;;;11.18;;
53971;SDS011;40530;53.062;6.078;2023-05-07T00:22:07;15.02;;;10.63;;
53971;SDS011;40530;53.062;6.078;2023-05-07T00:24:33;13.95;;;10.90;;
53971;SDS011;40530;53.062;6.078;2023-05-07T00:26:59;15.45;;;12.30;;
53971;SDS011;40530;53.062;6.078;2023-05-07T00:29:25;17.85;;;12.57;;
53971;SDS011;40530;53.062;6.078;2023-05-07T00:31:51;15.35;;;11.50;;
53971;SDS011;40530;53.062;6.078;2023-05-07T00:34:19;17.38;;;10.45;;
53971;SDS011;40530;53.062;6.078;2023-05-07T00:36:45;18.98;;;10.90;;
53971;SDS011;40530;53.062;6.078;2023-05-07T00:39:11;24.67;;;12.15;;
53971;SDS011;40530;53.062;6.078;2023-05-07T00:41:37;16.80;;;10.88;;
53971;SDS011;40530;53.062;6.078;2023-05-07T00:44:03;15.05;;;11.98;;
53971;SDS011;40530;53.062;6.078;2023-05-07T00:46:29;17.83;;;12.32;;
53971;SDS011;40530;53.062;6.078;2023-05-07T00:48:56;14.43;;;11.73;;
53971;SDS011;40530;53.062;6.078;2023-05-07T00:51:23;25.88;;;12.30;;
53971;SDS011;40530;53.062;6.078;2023-05-07T00:53:49;14.68;;;11.15;;
53971;SDS011;40530;53.062;6.078;2023-05-07T00:56:15;13.15;;;10.80;;
53971;SDS011;40530;53.062;6.078;2023-05-07T00:58:42;16.23;;;11.45;;
53971;SDS011;40530;53.062;6.078;2023-05-07T01:01:08;17.60;;;11.18;;
53971;SDS011;40530;53.062;6.078;2023-05-07T01:03:34;15.68;;;11.57;;
53971;SDS011;40530;53.062;6.078;2023-05-07T01:06:00;15.85;;;11.13;;
53971;SDS011;40530;53.062;6.078;2023-05-07T01:08:27;17.25;;;12.27;;
53971;SDS011;40530;53.062;6.078;2023-05-07T01:10:54;13.80;;;12.30;;
53971;SDS011;40530;53.062;6.078;2023-05-07T01:13:21;15.75;;;11.43;;
53971;SDS011;40530;53.062;6.078;2023-05-07T01:15:48;16.20;;;11.90;;
53971;SDS011;40530;53.062;6.078;2023-05-07T01:18:14;17.52;;;11.80;;
53971;SDS011;40530;53.062;6.078;2023-05-07T01:20:40;15.13;;;11.98;;
53971;SDS011;40530;53.062;6.078;2023-05-07T01:23:06;19.38;;;13.50;;
53971;SDS011;40530;53.062;6.078;2023-05-07T01:25:32;15.63;;;11.73;;
53971;SDS011;40530;53.062;6.078;2023-05-07T01:27:58;17.35;;;13.90;;
53971;SDS011;40530;53.062;6.078;2023-05-07T01:30:26;20.60;;;12.90;;
53971;SDS011;40530;53.062;6.078;2023-05-07T01:32:56;18.88;;;13.30;;
53971;SDS011;40530;53.062;6.078;2023-05-07T01:35:26;21.67;;;13.85;;
53971;SDS011;40530;53.062;6.078;2023-05-07T01:37:53;19.52;;;14.88;;
53971;SDS011;40530;53.062;6.078;2023-05-07T01:40:19;19.48;;;14.35;;
53971;SDS011;40530;53.062;6.078;2023-05-07T01:42:46;20.98;;;15.45;;
53971;SDS011;40530;53.062;6.078;2023-05-07T01:45:13;19.00;;;14.73;;
53971;SDS011;40530;53.062;6.078;2023-05-07T01:47:39;20.63;;;15.85;;
53971;SDS011;40530;53.062;6.078;2023-05-07T01:50:05;24.17;;;15.82;;
53971;SDS011;40530;53.062;6.078;2023-05-07T01:52:33;21.08;;;16.20;;
53971;SDS011;40530;53.062;6.078;2023-05-07T01:54:59;22.17;;;16.48;;
53971;SDS011;40530;53.062;6.078;2023-05-07T01:57:25;25.75;;;16.65;;
53971;SDS011;40530;53.062;6.078;2023-05-07T01:59:51;23.08;;;16.25;;
53971;SDS011;40530;53.062;6.078;2023-05-07T02:02:17;23.02;;;17.30;;
53971;SDS011;40530;53.062;6.078;2023-05-07T02:04:43;28.00;;;18.50;;
53971;SDS011;40530;53.062;6.078;2023-05-07T02:07:09;23.88;;;17.27;;
53971;SDS011;40530;53.062;6.078;2023-05-07T02:09:35;23.80;;;16.13;;
53971;SDS011;40530;53.062;6.078;2023-05-07T02:12:01;26.38;;;16.50;;
53971;SDS011;40530;53.062;6.078;2023-05-07T02:14:27;25.33;;;18.35;;
53971;SDS011;40530;53.062;6.078;2023-05-07T02:16:53;24.13;;;17.05;;
53971;SDS011;40530;53.062;6.078;2023-05-07T02:19:19;23.63;;;17.30;;
53971;SDS011;40530;53.062;6.078;2023-05-07T02:21:46;22.75;;;18.77;;
53971;SDS011;40530;53.062;6.078;2023-05-07T02:24:12;23.25;;;17.92;;
53971;SDS011;40530;53.062;6.078;2023-05-07T02:26:39;22.65;;;18.08;;
53971;SDS011;40530;53.062;6.078;2023-05-07T02:29:06;22.10;;;16.55;;
53971;SDS011;40530;53.062;6.078;2023-05-07T02:31:32;27.63;;;18.50;;
53971;SDS011;40530;53.062;6.078;2023-05-07T02:33:59;24.58;;;17.98;;
53971;SDS011;40530;53.062;6.078;2023-05-07T02:36:28;25.60;;;18.02;;
53971;SDS011;40530;53.062;6.078;2023-05-07T02:38:55;27.23;;;19.13;;
53971;SDS011;40530;53.062;6.078;2023-05-07T02:41:21;33.20;;;19.77;;
53971;SDS011;40530;53.062;6.078;2023-05-07T02:43:47;25.80;;;20.42;;
53971;SDS011;40530;53.062;6.078;2023-05-07T02:46:13;34.90;;;20.73;;
53971;SDS011;40530;53.062;6.078;2023-05-07T02:48:39;29.05;;;19.27;;
53971;SDS011;40530;53.062;6.078;2023-05-07T02:51:05;27.73;;;19.17;;
53971;SDS011;40530;53.062;6.078;2023-05-07T02:53:31;26.00;;;19.77;;
53971;SDS011;40530;53.062;6.078;2023-05-07T02:55:57;31.45;;;20.17;;
53971;SDS011;40530;53.062;6.078;2023-05-07T02:58:23;29.73;;;20.48;;
53971;SDS011;40530;53.062;6.078;2023-05-07T03:00:50;26.38;;;18.95;;
53971;SDS011;40530;53.062;6.078;2023-05-07T03:03:16;28.08;;;20.88;;
53971;SDS011;40530;53.062;6.078;2023-05-07T03:05:42;29.20;;;19.90;;
53971;SDS011;40530;53.062;6.078;2023-05-07T03:08:08;26.40;;;19.48;;
53971;SDS011;40530;53.062;6.078;2023-05-07T03:10:35;28.27;;;21.08;;
53971;SDS011;40530;53.062;6.078;2023-05-07T03:13:01;27.55;;;20.60;;
53971;SDS011;40530;53.062;6.078;2023-05-07T03:15:27;28.60;;;20.88;;
53971;SDS011;40530;53.062;6.078;2023-05-07T03:17:53;28.20;;;20.98;;
53971;SDS011;40530;53.062;6.078;2023-05-07T03:20:19;27.08;;;21.35;;
53971;SDS011;40530;53.062;6.078;2023-05-07T03:22:45;26.90;;;20.17;;
53971;SDS011;40530;53.062;6.078;2023-05-07T03:25:11;30.48;;;21.38;;
53971;SDS011;40530;53.062;6.078;2023-05-07T03:27:39;29.60;;;20.83;;
53971;SDS011;40530;53.062;6.078;2023-05-07T03:30:07;30.48;;;22.00;;
53971;SDS011;40530;53.062;6.078;2023-05-07T03:32:33;32.13;;;23.27;;
53971;SDS011;40530;53.062;6.078;2023-05-07T03:35:00;31.27;;;22.88;;
53971;SDS011;40530;53.062;6.078;2023-05-07T03:37:26;33.40;;;23.60;;
53971;SDS011;40530;53.062;6.078;2023-05-07T03:39:52;29.98;;;23.58;;
53971;SDS011;40530;53.062;6.078;2023-05-07T03:42:18;29.65;;;23.05;;
53971;SDS011;40530;53.062;6.078;2023-05-07T03:44:44;34.03;;;25.48;;
53971;SDS011;40530;53.062;6.078;2023-05-07T03:47:10;35.25;;;23.08;;
53971;SDS011;40530;53.062;6.078;2023-05-07T03:49:38;32.92;;;24.13;;
53971;SDS011;40530;53.062;6.078;2023-05-07T03:52:04;34.00;;;23.23;;
53971;SDS011;40530;53.062;6.078;2023-05-07T03:54:30;33.03;;;24.98;;
53971;SDS011;40530;53.062;6.078;2023-05-07T03:56:56;38.83;;;26.23;;
53971;SDS011;40530;53.062;6.078;2023-05-07T03:59:22;48.13;;;27.20;;
53971;SDS011;40530;53.062;6.078;2023-05-07T04:01:48;38.67;;;26.95;;
53971;SDS011;40530;53.062;6.078;2023-05-07T04:04:15;33.88;;;25.95;;
53971;SDS011;40530;53.062;6.078;2023-05-07T04:06:41;33.90;;;26.25;;
53971;SDS011;40530;53.062;6.078;2023-05-07T04:09:07;38.78;;;25.52;;
53971;SDS011;40530;53.062;6.078;2023-05-07T04:11:34;37.22;;;24.88;;
53971;SDS011;40530;53.062;6.078;2023-05-07T04:14:01;37.15;;;27.00;;
53971;SDS011;40530;53.062;6.078;2023-05-07T04:16:27;37.63;;;26.90;;
53971;SDS011;40530;53.062;6.078;2023-05-07T04:18:53;38.47;;;26.55;;
53971;SDS011;40530;53.062;6.078;2023-05-07T04:21:20;39.45;;;27.65;;
53971;SDS011;40530;53.062;6.078;2023-05-07T04:23:46;41.17;;;28.27;;
53971;SDS011;40530;53.062;6.078;2023-05-07T04:26:12;37.67;;;25.75;;
53971;SDS011;40530;53.062;6.078;2023-05-07T04:28:38;38.08;;;26.10;;
53971;SDS011;40530;53.062;6.078;2023-05-07T04:31:05;40.70;;;28.65;;
53971;SDS011;40530;53.062;6.078;2023-05-07T04:33:31;43.08;;;29.13;;
53971;SDS011;40530;53.062;6.078;2023-05-07T04:35:58;34.65;;;25.88;;
53971;SDS011;40530;53.062;6.078;2023-05-07T04:38:28;47.90;;;31.92;;
53971;SDS011;40530;53.062;6.078;2023-05-07T04:40:55;47.70;;;30.45;;
53971;SDS011;40530;53.062;6.078;2023-05-07T04:43:22;43.90;;;29.67;;
53971;SDS011;40530;53.062;6.078;2023-05-07T04:45:49;43.13;;;29.65;;
53971;SDS011;40530;53.062;6.078;2023-05-07T04:48:15;47.50;;;31.70;;
53971;SDS011;40530;53.062;6.078;2023-05-07T04:50:44;46.42;;;30.88;;
53971;SDS011;40530;53.062;6.078;2023-05-07T04:53:10;49.08;;;30.02;;
53971;SDS011;40530;53.062;6.078;2023-05-07T04:55:36;40.95;;;29.20;;
53971;SDS011;40530;53.062;6.078;2023-05-07T04:58:02;47.70;;;31.15;;
53971;SDS011;40530;53.062;6.078;2023-05-07T05:00:29;44.88;;;31.80;;
53971;SDS011;40530;53.062;6.078;2023-05-07T05:02:55;46.63;;;29.50;;
53971;SDS011;40530;53.062;6.078;2023-05-07T05:05:21;46.13;;;29.42;;
53971;SDS011;40530;53.062;6.078;2023-05-07T05:07:47;45.92;;;30.77;;
53971;SDS011;40530;53.062;6.078;2023-05-07T05:10:13;47.38;;;30.08;;
53971;SDS011;40530;53.062;6.078;2023-05-07T05:12:41;41.17;;;28.80;;
53971;SDS011;40530;53.062;6.078;2023-05-07T05:15:07;47.55;;;30.17;;
53971;SDS011;40530;53.062;6.078;2023-05-07T05:17:33;47.10;;;30.15;;
53971;SDS011;40530;53.062;6.078;2023-05-07T05:20:00;43.63;;;29.25;;
53971;SDS011;40530;53.062;6.078;2023-05-07T05:22:26;46.30;;;30.08;;
53971;SDS011;40530;53.062;6.078;2023-05-07T05:24:54;44.33;;;29.90;;
53971;SDS011;40530;53.062;6.078;2023-05-07T05:27:20;44.53;;;31.25;;
53971;SDS011;40530;53.062;6.078;2023-05-07T05:29:46;39.47;;;27.92;;
53971;SDS011;40530;53.062;6.078;2023-05-07T05:32:12;42.15;;;27.50;;
53971;SDS011;40530;53.062;6.078;2023-05-07T05:34:39;42.85;;;28.92;;
53971;SDS011;40530;53.062;6.078;2023-05-07T05:37:05;46.47;;;30.33;;
53971;SDS011;40530;53.062;6.078;2023-05-07T05:39:31;42.35;;;29.70;;
53971;SDS011;40530;53.062;6.078;2023-05-07T05:41:57;42.50;;;27.40;;
53971;SDS011;40530;53.062;6.078;2023-05-07T05:44:23;39.67;;;28.65;;
53971;SDS011;40530;53.062;6.078;2023-05-07T05:46:50;43.22;;;28.80;;
53971;SDS011;40530;53.062;6.078;2023-05-07T05:49:16;38.88;;;26.77;;
53971;SDS011;40530;53.062;6.078;2023-05-07T05:51:42;35.33;;;24.98;;
53971;SDS011;40530;53.062;6.078;2023-05-07T05:54:08;33.95;;;25.80;;
53971;SDS011;40530;53.062;6.078;2023-05-07T05:56:34;34.60;;;24.92;;
53971;SDS011;40530;53.062;6.078;2023-05-07T05:59:00;37.28;;;27.55;;
53971;SDS011;40530;53.062;6.078;2023-05-07T06:01:26;36.72;;;25.60;;
53971;SDS011;40530;53.062;6.078;2023-05-07T06:03:52;35.45;;;26.00;;
53971;SDS011;40530;53.062;6.078;2023-05-07T06:06:18;37.25;;;26.08;;
53971;SDS011;40530;53.062;6.078;2023-05-07T06:08:44;33.72;;;24.40;;
53971;SDS011;40530;53.062;6.078;2023-05-07T06:11:11;34.55;;;25.67;;
53971;SDS011;40530;53.062;6.078;2023-05-07T06:13:37;34.10;;;25.38;;
53971;SDS011;40530;53.062;6.078;2023-05-07T06:16:03;33.25;;;25.13;;
53971;SDS011;40530;53.062;6.078;2023-05-07T06:18:29;32.45;;;24.00;;
53971;SDS011;40530;53.062;6.078;2023-05-07T06:20:55;35.42;;;23.85;;
53971;SDS011;40530;53.062;6.078;2023-05-07T06:23:21;30.17;;;21.73;;
53971;SDS011;40530;53.062;6.078;2023-05-07T06:25:50;30.15;;;22.73;;
53971;SDS011;40530;53.062;6.078;2023-05-07T06:28:16;29.98;;;22.50;;
53971;SDS011;40530;53.062;6.078;2023-05-07T06:30:42;30.08;;;22.48;;
53971;SDS011;40530;53.062;6.078;2023-05-07T06:33:08;32.90;;;23.33;;
53971;SDS011;40530;53.062;6.078;2023-05-07T06:35:34;31.13;;;22.23;;
53971;SDS011;40530;53.062;6.078;2023-05-07T06:38:00;27.33;;;21.60;;
53971;SDS011;40530;53.062;6.078;2023-05-07T06:40:26;30.65;;;20.48;;
53971;SDS011;40530;53.062;6.078;2023-05-07T06:42:52;23.27;;;19.38;;
53971;SDS011;40530;53.062;6.078;2023-05-07T06:45:19;24.88;;;19.80;;
53971;SDS011;40530;53.062;6.078;2023-05-07T06:47:45;31.42;;;21.70;;
53971;SDS011;40530;53.062;6.078;2023-05-07T06:50:11;25.63;;;20.23;;
53971;SDS011;40530;53.062;6.078;2023-05-07T06:52:37;26.42;;;19.92;;
53971;SDS011;40530;53.062;6.078;2023-05-07T06:55:03;24.02;;;19.63;;
53971;SDS011;40530;53.062;6.078;2023-05-07T06:57:29;26.90;;;18.50;;
53971;SDS011;40530;53.062;6.078;2023-05-07T06:59:55;24.98;;;19.27;;
53971;SDS011;40530;53.062;6.078;2023-05-07T07:02:22;25.73;;;20.67;;
53971;SDS011;40530;53.062;6.078;2023-05-07T07:04:48;23.27;;;18.50;;
53971;SDS011;40530;53.062;6.078;2023-05-07T07:07:14;21.10;;;17.83;;
53971;SDS011;40530;53.062;6.078;2023-05-07T07:09:40;22.92;;;18.25;;
53971;SDS011;40530;53.062;6.078;2023-05-07T07:12:06;25.17;;;18.27;;
53971;SDS011;40530;53.062;6.078;2023-05-07T07:14:32;21.15;;;16.85;;
53971;SDS011;40530;53.062;6.078;2023-05-07T07:16:58;24.00;;;18.60;;
53971;SDS011;40530;53.062;6.078;2023-05-07T07:19:24;20.58;;;17.70;;
53971;SDS011;40530;53.062;6.078;2023-05-07T07:21:50;21.63;;;17.10;;
53971;SDS011;40530;53.062;6.078;2023-05-07T07:24:16;22.65;;;17.42;;
53971;SDS011;40530;53.062;6.078;2023-05-07T07:26:46;22.55;;;17.52;;
53971;SDS011;40530;53.062;6.078;2023-05-07T07:29:12;24.00;;;17.60;;
53971;SDS011;40530;53.062;6.078;2023-05-07T07:31:38;22.58;;;17.42;;
53971;SDS011;40530;53.062;6.078;2023-05-07T07:34:04;22.08;;;18.15;;
53971;SDS011;40530;53.062;6.078;2023-05-07T07:36:30;23.75;;;17.85;;
53971;SDS011;40530;53.062;6.078;2023-05-07T07:38:56;22.52;;;17.33;;
53971;SDS011;40530;53.062;6.078;2023-05-07T07:41:22;23.27;;;17.60;;
53971;SDS011;40530;53.062;6.078;2023-05-07T07:43:48;26.75;;;19.70;;
53971;SDS011;40530;53.062;6.078;2023-05-07T07:46:14;27.23;;;21.00;;
53971;SDS011;40530;53.062;6.078;2023-05-07T07:48:40;25.33;;;19.33;;
53971;SDS011;40530;53.062;6.078;2023-05-07T07:51:06;22.75;;;17.48;;
53971;SDS011;40530;53.062;6.078;2023-05-07T07:53:32;20.83;;;16.40;;
53971;SDS011;40530;53.062;6.078;2023-05-07T07:55:58;20.52;;;17.25;;
53971;SDS011;40530;53.062;6.078;2023-05-07T07:58:25;26.63;;;17.67;;
53971;SDS011;40530;53.062;6.078;2023-05-07T08:00:51;26.63;;;17.90;;
53971;SDS011;40530;53.062;6.078;2023-05-07T08:03:17;24.45;;;18.27;;
53971;SDS011;40530;53.062;6.078;2023-05-07T08:05:44;21.15;;;17.40;;
53971;SDS011;40530;53.062;6.078;2023-05-07T08:08:10;24.27;;;18.55;;
53971;SDS011;40530;53.062;6.078;2023-05-07T08:10:36;24.70;;;17.38;;
53971;SDS011;40530;53.062;6.078;2023-05-07T08:13:04;23.60;;;18.20;;
53971;SDS011;40530;53.062;6.078;2023-05-07T08:15:30;23.60;;;18.00;;
53971;SDS011;40530;53.062;6.078;2023-05-07T08:17:57;23.70;;;17.42;;
53971;SDS011;40530;53.062;6.078;2023-05-07T08:20:24;22.23;;;17.42;;
53971;SDS011;40530;53.062;6.078;2023-05-07T08:22:51;22.75;;;17.20;;
53971;SDS011;40530;53.062;6.078;2023-05-07T08:25:17;23.45;;;16.95;;
53971;SDS011;40530;53.062;6.078;2023-05-07T08:27:43;27.27;;;17.65;;
53971;SDS011;40530;53.062;6.078;2023-05-07T08:30:10;22.38;;;17.80;;
53971;SDS011;40530;53.062;6.078;2023-05-07T08:32:36;22.05;;;16.83;;
53971;SDS011;40530;53.062;6.078;2023-05-07T08:35:02;22.80;;;17.33;;
53971;SDS011;40530;53.062;6.078;2023-05-07T08:37:28;22.55;;;17.90;;
53971;SDS011;40530;53.062;6.078;2023-05-07T08:39:54;21.73;;;17.75;;
53971;SDS011;40530;53.062;6.078;2023-05-07T08:42:20;22.73;;;17.15;;
53971;SDS011;40530;53.062;6.078;2023-05-07T08:44:48;21.88;;;17.77;;
53971;SDS011;40530;53.062;6.078;2023-05-07T08:47:18;23.65;;;17.00;;
53971;SDS011;40530;53.062;6.078;2023-05-07T08:49:44;25.42;;;18.63;;
53971;SDS011;40530;53.062;6.078;2023-05-07T08:52:11;26.15;;;19.55;;
53971;SDS011;40530;53.062;6.078;2023-05-07T08:54:37;19.83;;;16.60;;
53971;SDS011;40530;53.062;6.078;2023-05-07T08:57:03;22.52;;;17.80;;
53971;SDS011;40530;53.062;6.078;2023-05-07T08:59:29;20.88;;;16.02;;
53971;SDS011;40530;53.062;6.078;2023-05-07T09:01:56;21.50;;;17.02;;
53971;SDS011;40530;53.062;6.078;2023-05-07T09:04:22;22.67;;;17.30;;
53971;SDS011;40530;53.062;6.078;2023-05-07T09:06:48;24.13;;;17.70;;
53971;SDS011;40530;53.062;6.078;2023-05-07T09:09:16;21.45;;;16.60;;
53971;SDS011;40530;53.062;6.078;2023-05-07T09:11:45;23.85;;;17.30;;
53971;SDS011;40530;53.062;6.078;2023-05-07T09:14:12;23.55;;;18.02;;
53971;SDS011;40530;53.062;6.078;2023-05-07T09:16:38;21.52;;;17.67;;
53971;SDS011;40530;53.062;6.078;2023-05-07T09:19:04;22.50;;;17.67;;
53971;SDS011;40530;53.062;6.078;2023-05-07T09:21:30;20.27;;;16.63;;
53971;SDS011;40530;53.062;6.078;2023-05-07T09:23:56;24.95;;;18.38;;
53971;SDS011;40530;53.062;6.078;2023-05-07T09:26:22;20.20;;;17.52;;
53971;SDS011;40530;53.062;6.078;2023-05-07T09:28:48;19.00;;;14.40;;
53971;SDS011;40530;53.062;6.078;2023-05-07T09:31:15;30.00;;;21.63;;
53971;SDS011;40530;53.062;6.078;2023-05-07T09:33:41;25.70;;;18.67;;
53971;SDS011;40530;53.062;6.078;2023-05-07T09:36:07;19.65;;;16.65;;
53971;SDS011;40530;53.062;6.078;2023-05-07T09:38:34;24.52;;;18.67;;
53971;SDS011;40530;53.062;6.078;2023-05-07T09:43:33;22.45;;;17.52;;
53971;SDS011;40530;53.062;6.078;2023-05-07T09:46:02;21.15;;;17.13;;
53971;SDS011;40530;53.062;6.078;2023-05-07T09:48:29;18.35;;;15.25;;
53971;SDS011;40530;53.062;6.078;2023-05-07T09:50:55;21.20;;;16.88;;
53971;SDS011;40530;53.062;6.078;2023-05-07T09:53:23;20.85;;;17.48;;
53971;SDS011;40530;53.062;6.078;2023-05-07T09:55:51;21.83;;;16.73;;
53971;SDS011;40530;53.062;6.078;2023-05-07T09:58:18;19.85;;;16.70;;
53971;SDS011;40530;53.062;6.078;2023-05-07T10:00:44;23.55;;;17.23;;
53971;SDS011;40530;53.062;6.078;2023-05-07T10:03:11;22.95;;;17.58;;
53971;SDS011;40530;53.062;6.078;2023-05-07T10:05:39;22.35;;;18.42;;
53971;SDS011;40530;53.062;6.078;2023-05-07T10:08:05;20.85;;;16.80;;
53971;SDS011;40530;53.062;6.078;2023-05-07T10:10:32;20.30;;;16.90;;
53971;SDS011;40530;53.062;6.078;2023-05-07T10:12:59;22.38;;;17.05;;
53971;SDS011;40530;53.062;6.078;2023-05-07T10:15:25;20.50;;;17.13;;
53971;SDS011;40530;53.062;6.078;2023-05-07T10:17:52;21.33;;;17.13;;
53971;SDS011;40530;53.062;6.078;2023-05-07T10:20:19;20.98;;;16.92;;
53971;SDS011;40530;53.062;6.078;2023-05-07T10:22:45;23.02;;;17.52;;
53971;SDS011;40530;53.062;6.078;2023-05-07T10:25:18;22.02;;;17.27;;
53971;SDS011;40530;53.062;6.078;2023-05-07T10:27:46;23.50;;;16.73;;
53971;SDS011;40530;53.062;6.078;2023-05-07T10:30:24;20.80;;;16.67;;
53971;SDS011;40530;53.062;6.078;2023-05-07T10:32:53;20.00;;;17.27;;
53971;SDS011;40530;53.062;6.078;2023-05-07T10:35:30;19.70;;;15.90;;
53971;SDS011;40530;53.062;6.078;2023-05-07T10:37:57;18.70;;;15.55;;
53971;SDS011;40530;53.062;6.078;2023-05-07T10:40:24;19.25;;;15.05;;
53971;SDS011;40530;53.062;6.078;2023-05-07T10:42:53;20.23;;;13.98;;
53971;SDS011;40530;53.062;6.078;2023-05-07T10:45:20;18.30;;;16.27;;
53971;SDS011;40530;53.062;6.078;2023-05-07T10:48:05;20.20;;;16.45;;
53971;SDS011;40530;53.062;6.078;2023-05-07T10:50:32;21.33;;;16.40;;
53971;SDS011;40530;53.062;6.078;2023-05-07T10:55:52;19.15;;;14.85;;
53971;SDS011;40530;53.062;6.078;2023-05-07T10:58:28;22.30;;;18.67;;
53971;SDS011;40530;53.062;6.078;2023-05-07T11:00:58;20.77;;;17.42;;
53971;SDS011;40530;53.062;6.078;2023-05-07T11:03:25;19.75;;;15.40;;
53971;SDS011;40530;53.062;6.078;2023-05-07T11:06:10;23.55;;;15.23;;
53971;SDS011;40530;53.062;6.078;2023-05-07T11:08:52;17.75;;;15.48;;
53971;SDS011;40530;53.062;6.078;2023-05-07T11:11:18;16.42;;;14.63;;
53971;SDS011;40530;53.062;6.078;2023-05-07T11:13:45;15.40;;;13.55;;
53971;SDS011;40530;53.062;6.078;2023-05-07T11:21:09;19.35;;;15.80;;
53971;SDS011;40530;53.062;6.078;2023-05-07T11:26:06;16.75;;;14.50;;
53971;SDS011;40530;53.062;6.078;2023-05-07T11:28:42;17.92;;;13.18;;
53971;SDS011;40530;53.062;6.078;2023-05-07T11:31:09;14.55;;;13.05;;
53971;SDS011;40530;53.062;6.078;2023-05-07T11:33:35;19.98;;;13.57;;
53971;SDS011;40530;53.062;6.078;2023-05-07T11:36:02;14.75;;;12.93;;
53971;SDS011;40530;53.062;6.078;2023-05-07T11:38:29;15.88;;;13.63;;
53971;SDS011;40530;53.062;6.078;2023-05-07T11:40:56;15.93;;;13.90;;
53971;SDS011;40530;53.062;6.078;2023-05-07T11:43:23;15.63;;;13.82;;
53971;SDS011;40530;53.062;6.078;2023-05-07T11:45:50;16.65;;;14.00;;
53971;SDS011;40530;53.062;6.078;2023-05-07T11:48:16;15.82;;;12.98;;
53971;SDS011;40530;53.062;6.078;2023-05-07T11:50:51;15.07;;;12.27;;
53971;SDS011;40530;53.062;6.078;2023-05-07T11:53:18;17.35;;;12.60;;
53971;SDS011;40530;53.062;6.078;2023-05-07T11:55:45;14.20;;;12.52;;
53971;SDS011;40530;53.062;6.078;2023-05-07T11:58:12;14.43;;;11.27;;
53971;SDS011;40530;53.062;6.078;2023-05-07T12:00:38;14.02;;;12.35;;
53971;SDS011;40530;53.062;6.078;2023-05-07T12:03:04;13.23;;;11.15;;
53971;SDS011;40530;53.062;6.078;2023-05-07T12:05:30;12.27;;;10.70;;
53971;SDS011;40530;53.062;6.078;2023-05-07T12:07:57;13.60;;;10.85;;
53971;SDS011;40530;53.062;6.078;2023-05-07T12:10:23;12.30;;;10.90;;
53971;SDS011;40530;53.062;6.078;2023-05-07T12:12:50;13.73;;;11.98;;
53971;SDS011;40530;53.062;6.078;2023-05-07T12:15:16;14.15;;;12.20;;
53971;SDS011;40530;53.062;6.078;2023-05-07T12:17:42;14.63;;;11.50;;
53971;SDS011;40530;53.062;6.078;2023-05-07T12:20:09;11.13;;;9.95;;
53971;SDS011;40530;53.062;6.078;2023-05-07T12:22:38;13.10;;;10.32;;
53971;SDS011;40530;53.062;6.078;2023-05-07T12:25:04;13.50;;;11.27;;
53971;SDS011;40530;53.062;6.078;2023-05-07T12:27:30;13.57;;;11.00;;
53971;SDS011;40530;53.062;6.078;2023-05-07T12:29:57;14.48;;;10.95;;
53971;SDS011;40530;53.062;6.078;2023-05-07T12:32:23;12.55;;;11.25;;
53971;SDS011;40530;53.062;6.078;2023-05-07T12:34:49;11.75;;;10.55;;
53971;SDS011;40530;53.062;6.078;2023-05-07T12:37:16;13.52;;;10.82;;
53971;SDS011;40530;53.062;6.078;2023-05-07T12:39:49;14.70;;;11.48;;
53971;SDS011;40530;53.062;6.078;2023-05-07T12:42:15;12.35;;;10.88;;
53971;SDS011;40530;53.062;6.078;2023-05-07T12:44:43;12.40;;;11.13;;
53971;SDS011;40530;53.062;6.078;2023-05-07T12:47:10;13.32;;;11.13;;
53971;SDS011;40530;53.062;6.078;2023-05-07T12:49:37;17.40;;;12.50;;
53971;SDS011;40530;53.062;6.078;2023-05-07T12:52:05;12.93;;;10.60;;
53971;SDS011;40530;53.062;6.078;2023-05-07T12:54:35;11.32;;;10.15;;
53971;SDS011;40530;53.062;6.078;2023-05-07T12:57:03;13.07;;;10.30;;
53971;SDS011;40530;53.062;6.078;2023-05-07T12:59:39;13.20;;;11.13;;
53971;SDS011;40530;53.062;6.078;2023-05-07T13:02:05;11.43;;;9.82;;
53971;SDS011;40530;53.062;6.078;2023-05-07T13:04:32;12.43;;;10.48;;
53971;SDS011;40530;53.062;6.078;2023-05-07T13:06:58;13.55;;;10.48;;
53971;SDS011;40530;53.062;6.078;2023-05-07T13:09:24;11.75;;;10.55;;
53971;SDS011;40530;53.062;6.078;2023-05-07T13:11:50;12.40;;;10.30;;
53971;SDS011;40530;53.062;6.078;2023-05-07T13:14:17;12.18;;;10.10;;
53971;SDS011;40530;53.062;6.078;2023-05-07T13:16:45;12.05;;;9.68;;
53971;SDS011;40530;53.062;6.078;2023-05-07T13:19:11;19.48;;;15.38;;
53971;SDS011;40530;53.062;6.078;2023-05-07T13:21:37;14.07;;;11.45;;
53971;SDS011;40530;53.062;6.078;2023-05-07T13:24:03;13.00;;;10.90;;
53971;SDS011;40530;53.062;6.078;2023-05-07T13:26:31;11.02;;;9.77;;
53971;SDS011;40530;53.062;6.078;2023-05-07T13:28:57;11.07;;;9.57;;
53971;SDS011;40530;53.062;6.078;2023-05-07T13:31:24;10.82;;;9.73;;
53971;SDS011;40530;53.062;6.078;2023-05-07T13:33:50;11.02;;;9.93;;
53971;SDS011;40530;53.062;6.078;2023-05-07T13:36:17;13.38;;;9.52;;
53971;SDS011;40530;53.062;6.078;2023-05-07T13:38:43;12.25;;;9.98;;
53971;SDS011;40530;53.062;6.078;2023-05-07T13:41:09;10.75;;;9.65;;
53971;SDS011;40530;53.062;6.078;2023-05-07T13:43:35;10.98;;;9.75;;
53971;SDS011;40530;53.062;6.078;2023-05-07T13:48:37;11.65;;;9.13;;
53971;SDS011;40530;53.062;6.078;2023-05-07T13:51:03;12.20;;;10.85;;
53971;SDS011;40530;53.062;6.078;2023-05-07T13:53:29;10.80;;;9.32;;
53971;SDS011;40530;53.062;6.078;2023-05-07T13:55:55;12.00;;;10.23;;
53971;SDS011;40530;53.062;6.078;2023-05-07T13:58:21;13.57;;;10.63;;
53971;SDS011;40530;53.062;6.078;2023-05-07T14:00:47;15.35;;;11.07;;
53971;SDS011;40530;53.062;6.078;2023-05-07T14:03:13;17.65;;;12.18;;
53971;SDS011;40530;53.062;6.078;2023-05-07T14:05:39;24.98;;;16.60;;
53971;SDS011;40530;53.062;6.078;2023-05-07T14:08:06;13.15;;;11.30;;
53971;SDS011;40530;53.062;6.078;2023-05-07T14:10:32;14.13;;;9.77;;
53971;SDS011;40530;53.062;6.078;2023-05-07T14:12:59;12.40;;;10.13;;
53971;SDS011;40530;53.062;6.078;2023-05-07T14:15:26;11.65;;;10.23;;
53971;SDS011;40530;53.062;6.078;2023-05-07T14:17:51;13.55;;;10.60;;
53971;SDS011;40530;53.062;6.078;2023-05-07T14:20:17;11.73;;;10.48;;
53971;SDS011;40530;53.062;6.078;2023-05-07T14:22:44;11.30;;;10.07;;
53971;SDS011;40530;53.062;6.078;2023-05-07T14:25:10;10.93;;;9.88;;
53971;SDS011;40530;53.062;6.078;2023-05-07T14:27:36;12.07;;;10.38;;
53971;SDS011;40530;53.062;6.078;2023-05-07T14:30:05;11.63;;;9.30;;
53971;SDS011;40530;53.062;6.078;2023-05-07T14:32:32;14.45;;;12.32;;